sensor_id;sensor_type;location;lat;lon;timestamp;P1;durP1;ratioP1;P2;durP2;ratioP2
36833;SDS011;48003;52.084;5.224;2023-10-09T00:01:05;47.3;;;25.4;;
36833;SDS011;48003;52.084;5.224;2023-10-09T00:04:19;47.0;;;24.1;;
36833;SDS011;48003;52.084;5.224;2023-10-09T00:05:55;45.8;;;24.8;;
36833;SDS011;48003;52.084;5.224;2023-10-09T00:07:31;47.0;;;26.5;;
36833;SDS011;48003;52.084;5.224;2023-10-09T00:10:45;45.6;;;24.1;;
36833;SDS011;48003;52.084;5.224;2023-10-09T00:12:22;41.3;;;24.7;;
36833;SDS011;48003;52.084;5.224;2023-10-09T00:13:59;43.2;;;23.8;;
36833;SDS011;48003;52.084;5.224;2023-10-09T00:17:11;44.3;;;24.3;;
36833;SDS011;48003;52.084;5.224;2023-10-09T00:18:47;42.3;;;25.6;;
36833;SDS011;48003;52.084;5.224;2023-10-09T00:20:23;43.0;;;24.0;;
36833;SDS011;48003;52.084;5.224;2023-10-09T00:22:00;42.2;;;23.2;;
36833;SDS011;48003;52.084;5.224;2023-10-09T00:25:12;40.0;;;23.8;;
36833;SDS011;48003;52.084;5.224;2023-10-09T00:26:49;41.3;;;23.2;;
36833;SDS011;48003;52.084;5.224;2023-10-09T00:28:25;39.9;;;22.7;;
36833;SDS011;48003;52.084;5.224;2023-10-09T00:31:38;42.2;;;22.6;;
36833;SDS011;48003;52.084;5.224;2023-10-09T00:33:14;41.9;;;23.6;;
36833;SDS011;48003;52.084;5.224;2023-10-09T00:34:53;41.8;;;22.3;;
36833;SDS011;48003;52.084;5.224;2023-10-09T00:38:06;37.21;;;21.6;;
36833;SDS011;48003;52.084;5.224;2023-10-09T00:39:43;38.31;;;22.0;;
36833;SDS011;48003;52.084;5.224;2023-10-09T00:41:21;38.31;;;21.6;;
36833;SDS011;48003;52.084;5.224;2023-10-09T00:42:58;33.1;;;21.3;;
36833;SDS011;48003;52.084;5.224;2023-10-09T00:46:11;32.9;;;19.7;;
36833;SDS011;48003;52.084;5.224;2023-10-09T00:47:48;35.9;;;21.0;;
36833;SDS011;48003;52.084;5.224;2023-10-09T00:49:25;32.3;;;19.7;;
36833;SDS011;48003;52.084;5.224;2023-10-09T00:52:39;28.7;;;18.11;;
36833;SDS011;48003;52.084;5.224;2023-10-09T00:54:17;29.1;;;17.8;;
36833;SDS011;48003;52.084;5.224;2023-10-09T00:55:53;30.1;;;18.11;;
36833;SDS011;48003;52.084;5.224;2023-10-09T00:57:30;30.7;;;18.41;;
36833;SDS011;48003;52.084;5.224;2023-10-09T01:00:44;30.0;;;16.9;;
36833;SDS011;48003;52.084;5.224;2023-10-09T01:02:21;30.3;;;17.61;;
36833;SDS011;48003;52.084;5.224;2023-10-09T01:03:57;27.8;;;17.2;;
36833;SDS011;48003;52.084;5.224;2023-10-09T01:07:09;29.2;;;17.0;;
36833;SDS011;48003;52.084;5.224;2023-10-09T01:08:45;28.1;;;16.4;;
36833;SDS011;48003;52.084;5.224;2023-10-09T01:10:21;26.7;;;16.3;;
36833;SDS011;48003;52.084;5.224;2023-10-09T01:13:34;30.0;;;16.11;;
36833;SDS011;48003;52.084;5.224;2023-10-09T01:15:11;24.0;;;14.8;;
36833;SDS011;48003;52.084;5.224;2023-10-09T01:16:47;23.9;;;15.7;;
36833;SDS011;48003;52.084;5.224;2023-10-09T01:18:23;23.4;;;15.7;;
36833;SDS011;48003;52.084;5.224;2023-10-09T01:21:37;26.2;;;15.2;;
36833;SDS011;48003;52.084;5.224;2023-10-09T01:23:13;22.1;;;14.6;;
36833;SDS011;48003;52.084;5.224;2023-10-09T01:24:50;25.9;;;15.1;;
36833;SDS011;48003;52.084;5.224;2023-10-09T01:28:03;21.4;;;14.3;;
36833;SDS011;48003;52.084;5.224;2023-10-09T01:29:40;25.2;;;14.4;;
36833;SDS011;48003;52.084;5.224;2023-10-09T01:31:17;23.2;;;14.2;;
36833;SDS011;48003;52.084;5.224;2023-10-09T01:34:30;27.1;;;15.0;;
36833;SDS011;48003;52.084;5.224;2023-10-09T01:36:07;23.4;;;13.9;;
36833;SDS011;48003;52.084;5.224;2023-10-09T01:37:44;21.4;;;12.9;;
36833;SDS011;48003;52.084;5.224;2023-10-09T01:39:21;22.7;;;14.1;;
36833;SDS011;48003;52.084;5.224;2023-10-09T01:42:35;21.9;;;13.6;;
36833;SDS011;48003;52.084;5.224;2023-10-09T01:44:11;20.2;;;13.3;;
36833;SDS011;48003;52.084;5.224;2023-10-09T01:45:47;20.9;;;13.8;;
36833;SDS011;48003;52.084;5.224;2023-10-09T01:49:01;22.4;;;13.4;;
36833;SDS011;48003;52.084;5.224;2023-10-09T01:50:37;23.4;;;12.8;;
36833;SDS011;48003;52.084;5.224;2023-10-09T01:52:13;20.2;;;12.8;;
36833;SDS011;48003;52.084;5.224;2023-10-09T01:55:26;20.5;;;11.6;;
36833;SDS011;48003;52.084;5.224;2023-10-09T01:57:02;22.4;;;12.3;;
36833;SDS011;48003;52.084;5.224;2023-10-09T01:58:41;21.7;;;12.6;;
36833;SDS011;48003;52.084;5.224;2023-10-09T02:00:18;17.2;;;11.6;;
36833;SDS011;48003;52.084;5.224;2023-10-09T02:03:31;17.7;;;11.7;;
36833;SDS011;48003;52.084;5.224;2023-10-09T02:05:08;17.7;;;11.7;;
36833;SDS011;48003;52.084;5.224;2023-10-09T02:06:46;21.3;;;12.5;;
36833;SDS011;48003;52.084;5.224;2023-10-09T02:09:59;20.41;;;12.9;;
36833;SDS011;48003;52.084;5.224;2023-10-09T02:11:36;20.9;;;12.2;;
36833;SDS011;48003;52.084;5.224;2023-10-09T02:13:13;18.41;;;11.7;;
36833;SDS011;48003;52.084;5.224;2023-10-09T02:16:27;21.8;;;11.8;;
36833;SDS011;48003;52.084;5.224;2023-10-09T02:18:04;20.9;;;12.2;;
36833;SDS011;48003;52.084;5.224;2023-10-09T02:19:40;19.41;;;10.9;;
36833;SDS011;48003;52.084;5.224;2023-10-09T02:21:16;17.41;;;10.1;;
36833;SDS011;48003;52.084;5.224;2023-10-09T02:24:29;18.3;;;10.8;;
36833;SDS011;48003;52.084;5.224;2023-10-09T02:26:05;17.3;;;10.1;;
36833;SDS011;48003;52.084;5.224;2023-10-09T02:27:41;18.91;;;10.4;;
36833;SDS011;48003;52.084;5.224;2023-10-09T02:30:53;18.0;;;10.3;;
36833;SDS011;48003;52.084;5.224;2023-10-09T02:32:29;17.2;;;10.21;;
36833;SDS011;48003;52.084;5.224;2023-10-09T02:34:05;17.11;;;10.5;;
36833;SDS011;48003;52.084;5.224;2023-10-09T02:37:19;20.5;;;9.9;;
36833;SDS011;48003;52.084;5.224;2023-10-09T02:38:55;16.8;;;9.9;;
36833;SDS011;48003;52.084;5.224;2023-10-09T02:40:32;18.61;;;9.31;;
36833;SDS011;48003;52.084;5.224;2023-10-09T02:42:08;16.11;;;9.81;;
36833;SDS011;48003;52.084;5.224;2023-10-09T02:45:20;18.7;;;10.5;;
36833;SDS011;48003;52.084;5.224;2023-10-09T02:46:56;18.8;;;10.1;;
36833;SDS011;48003;52.084;5.224;2023-10-09T02:48:32;17.41;;;10.9;;
36833;SDS011;48003;52.084;5.224;2023-10-09T02:51:44;18.7;;;10.4;;
36833;SDS011;48003;52.084;5.224;2023-10-09T02:53:20;20.0;;;10.5;;
36833;SDS011;48003;52.084;5.224;2023-10-09T02:54:56;18.7;;;10.7;;
36833;SDS011;48003;52.084;5.224;2023-10-09T02:58:11;18.7;;;10.8;;
36833;SDS011;48003;52.084;5.224;2023-10-09T02:59:47;16.8;;;10.3;;
36833;SDS011;48003;52.084;5.224;2023-10-09T03:01:24;15.5;;;9.71;;
36833;SDS011;48003;52.084;5.224;2023-10-09T03:03:00;15.5;;;9.71;;
36833;SDS011;48003;52.084;5.224;2023-10-09T03:07:49;17.7;;;10.1;;
36833;SDS011;48003;52.084;5.224;2023-10-09T03:09:26;16.0;;;10.0;;
36833;SDS011;48003;52.084;5.224;2023-10-09T03:12:39;16.11;;;10.21;;
36833;SDS011;48003;52.084;5.224;2023-10-09T03:14:15;18.3;;;10.1;;
36833;SDS011;48003;52.084;5.224;2023-10-09T03:15:51;18.3;;;10.5;;
36833;SDS011;48003;52.084;5.224;2023-10-09T03:19:03;17.61;;;10.7;;
36833;SDS011;48003;52.084;5.224;2023-10-09T03:20:39;17.61;;;11.0;;
36833;SDS011;48003;52.084;5.224;2023-10-09T03:22:15;20.11;;;10.9;;
36833;SDS011;48003;52.084;5.224;2023-10-09T03:25:27;19.61;;;10.6;;
36833;SDS011;48003;52.084;5.224;2023-10-09T03:27:04;17.91;;;10.9;;
36833;SDS011;48003;52.084;5.224;2023-10-09T03:28:40;16.9;;;11.0;;
36833;SDS011;48003;52.084;5.224;2023-10-09T03:30:17;20.11;;;11.5;;
36833;SDS011;48003;52.084;5.224;2023-10-09T03:33:29;17.7;;;11.4;;
36833;SDS011;48003;52.084;5.224;2023-10-09T03:35:05;21.3;;;11.6;;
36833;SDS011;48003;52.084;5.224;2023-10-09T03:36:42;19.7;;;11.3;;
36833;SDS011;48003;52.084;5.224;2023-10-09T03:39:53;19.5;;;10.6;;
36833;SDS011;48003;52.084;5.224;2023-10-09T03:41:29;19.11;;;11.0;;
36833;SDS011;48003;52.084;5.224;2023-10-09T03:43:06;17.91;;;10.7;;
36833;SDS011;48003;52.084;5.224;2023-10-09T03:47:54;19.41;;;11.1;;
36833;SDS011;48003;52.084;5.224;2023-10-09T03:49:32;19.2;;;10.6;;
36833;SDS011;48003;52.084;5.224;2023-10-09T03:51:08;19.3;;;10.7;;
36833;SDS011;48003;52.084;5.224;2023-10-09T03:54:21;18.0;;;11.3;;
36833;SDS011;48003;52.084;5.224;2023-10-09T03:55:57;20.6;;;10.9;;
36833;SDS011;48003;52.084;5.224;2023-10-09T03:57:33;17.7;;;10.5;;
36833;SDS011;48003;52.084;5.224;2023-10-09T04:00:45;18.61;;;10.4;;
36833;SDS011;48003;52.084;5.224;2023-10-09T04:02:21;18.0;;;10.1;;
36833;SDS011;48003;52.084;5.224;2023-10-09T04:03:58;17.91;;;10.1;;
36833;SDS011;48003;52.084;5.224;2023-10-09T04:07:13;16.11;;;10.5;;
36833;SDS011;48003;52.084;5.224;2023-10-09T04:08:49;18.61;;;9.9;;
36833;SDS011;48003;52.084;5.224;2023-10-09T04:10:25;15.0;;;8.71;;
36833;SDS011;48003;52.084;5.224;2023-10-09T04:12:01;16.2;;;9.5;;
36833;SDS011;48003;52.084;5.224;2023-10-09T04:15:13;15.0;;;9.9;;
36833;SDS011;48003;52.084;5.224;2023-10-09T04:16:50;21.1;;;9.4;;
36833;SDS011;48003;52.084;5.224;2023-10-09T04:18:26;17.11;;;9.31;;
36833;SDS011;48003;52.084;5.224;2023-10-09T04:21:40;18.0;;;9.9;;
36833;SDS011;48003;52.084;5.224;2023-10-09T04:23:16;15.2;;;9.21;;
36833;SDS011;48003;52.084;5.224;2023-10-09T04:24:52;17.11;;;9.71;;
36833;SDS011;48003;52.084;5.224;2023-10-09T04:28:04;15.9;;;9.31;;
36833;SDS011;48003;52.084;5.224;2023-10-09T04:29:40;16.61;;;9.1;;
36833;SDS011;48003;52.084;5.224;2023-10-09T04:31:17;16.9;;;9.6;;
36833;SDS011;48003;52.084;5.224;2023-10-09T04:34:29;15.5;;;9.0;;
36833;SDS011;48003;52.084;5.224;2023-10-09T04:36:05;17.8;;;9.81;;
36833;SDS011;48003;52.084;5.224;2023-10-09T04:37:43;19.11;;;10.6;;
36833;SDS011;48003;52.084;5.224;2023-10-09T04:39:19;18.7;;;9.6;;
36833;SDS011;48003;52.084;5.224;2023-10-09T04:42:31;17.2;;;10.1;;
36833;SDS011;48003;52.084;5.224;2023-10-09T04:44:07;16.9;;;9.81;;
36833;SDS011;48003;52.084;5.224;2023-10-09T04:45:42;18.61;;;10.1;;
36833;SDS011;48003;52.084;5.224;2023-10-09T04:48:54;19.61;;;9.9;;
36833;SDS011;48003;52.084;5.224;2023-10-09T04:50:30;16.7;;;9.71;;
36833;SDS011;48003;52.084;5.224;2023-10-09T04:52:06;15.6;;;9.0;;
36833;SDS011;48003;52.084;5.224;2023-10-09T04:55:18;17.61;;;9.1;;
36833;SDS011;48003;52.084;5.224;2023-10-09T04:56:54;17.8;;;9.4;;
36833;SDS011;48003;52.084;5.224;2023-10-09T04:58:30;19.41;;;9.31;;
36833;SDS011;48003;52.084;5.224;2023-10-09T05:00:07;17.11;;;9.6;;
36833;SDS011;48003;52.084;5.224;2023-10-09T05:03:21;17.2;;;9.5;;
36833;SDS011;48003;52.084;5.224;2023-10-09T05:04:57;20.11;;;9.21;;
36833;SDS011;48003;52.084;5.224;2023-10-09T05:06:33;20.0;;;9.71;;
36833;SDS011;48003;52.084;5.224;2023-10-09T05:09:47;15.9;;;9.0;;
36833;SDS011;48003;52.084;5.224;2023-10-09T05:11:23;17.2;;;9.71;;
36833;SDS011;48003;52.084;5.224;2023-10-09T05:12:59;19.11;;;10.0;;
36833;SDS011;48003;52.084;5.224;2023-10-09T05:16:13;16.0;;;9.0;;
36833;SDS011;48003;52.084;5.224;2023-10-09T05:17:50;18.3;;;8.9;;
36833;SDS011;48003;52.084;5.224;2023-10-09T05:19:27;19.8;;;9.4;;
36833;SDS011;48003;52.084;5.224;2023-10-09T05:21:03;19.91;;;9.9;;
36833;SDS011;48003;52.084;5.224;2023-10-09T05:24:15;18.61;;;9.1;;
36833;SDS011;48003;52.084;5.224;2023-10-09T05:25:51;21.1;;;8.81;;
36833;SDS011;48003;52.084;5.224;2023-10-09T05:27:27;16.0;;;8.6;;
36833;SDS011;48003;52.084;5.224;2023-10-09T05:30:39;14.0;;;7.7;;
36833;SDS011;48003;52.084;5.224;2023-10-09T05:32:16;16.7;;;8.6;;
36833;SDS011;48003;52.084;5.224;2023-10-09T05:33:51;17.3;;;8.31;;
36833;SDS011;48003;52.084;5.224;2023-10-09T05:37:04;20.6;;;8.5;;
36833;SDS011;48003;52.084;5.224;2023-10-09T05:38:41;15.1;;;8.0;;
36833;SDS011;48003;52.084;5.224;2023-10-09T05:40:17;13.3;;;8.2;;
36833;SDS011;48003;52.084;5.224;2023-10-09T05:43:29;15.6;;;8.5;;
36833;SDS011;48003;52.084;5.224;2023-10-09T05:45:06;14.8;;;8.2;;
36833;SDS011;48003;52.084;5.224;2023-10-09T05:46:43;11.3;;;7.4;;
36833;SDS011;48003;52.084;5.224;2023-10-09T05:48:19;19.61;;;9.4;;
36833;SDS011;48003;52.084;5.224;2023-10-09T05:51:32;19.91;;;10.6;;
36833;SDS011;48003;52.084;5.224;2023-10-09T05:53:08;18.11;;;10.6;;
36833;SDS011;48003;52.084;5.224;2023-10-09T05:54:44;16.11;;;8.5;;
36833;SDS011;48003;52.084;5.224;2023-10-09T05:57:56;16.4;;;8.71;;
36833;SDS011;48003;52.084;5.224;2023-10-09T05:59:32;15.5;;;8.5;;
36833;SDS011;48003;52.084;5.224;2023-10-09T06:01:08;20.3;;;8.9;;
36833;SDS011;48003;52.084;5.224;2023-10-09T06:04:20;14.1;;;8.4;;
36833;SDS011;48003;52.084;5.224;2023-10-09T06:05:57;16.2;;;8.31;;
36833;SDS011;48003;52.084;5.224;2023-10-09T06:07:33;15.8;;;9.0;;
36833;SDS011;48003;52.084;5.224;2023-10-09T06:09:09;15.6;;;8.6;;
36833;SDS011;48003;52.084;5.224;2023-10-09T06:12:22;15.9;;;8.6;;
36833;SDS011;48003;52.084;5.224;2023-10-09T06:13:59;17.2;;;8.81;;
36833;SDS011;48003;52.084;5.224;2023-10-09T06:15:37;16.7;;;8.5;;
36833;SDS011;48003;52.084;5.224;2023-10-09T06:18:50;15.7;;;8.4;;
36833;SDS011;48003;52.084;5.224;2023-10-09T06:20:26;15.8;;;8.9;;
36833;SDS011;48003;52.084;5.224;2023-10-09T06:22:02;17.2;;;9.81;;
36833;SDS011;48003;52.084;5.224;2023-10-09T06:25:14;18.2;;;9.21;;
36833;SDS011;48003;52.084;5.224;2023-10-09T06:26:50;15.1;;;7.6;;
36833;SDS011;48003;52.084;5.224;2023-10-09T06:28:26;16.11;;;7.8;;
36833;SDS011;48003;52.084;5.224;2023-10-09T06:31:38;14.8;;;8.5;;
36833;SDS011;48003;52.084;5.224;2023-10-09T06:33:15;13.1;;;8.31;;
36833;SDS011;48003;52.084;5.224;2023-10-09T06:34:51;18.41;;;8.6;;
36833;SDS011;48003;52.084;5.224;2023-10-09T06:36:29;12.8;;;7.9;;
36833;SDS011;48003;52.084;5.224;2023-10-09T06:39:41;14.9;;;8.6;;
36833;SDS011;48003;52.084;5.224;2023-10-09T06:41:17;18.61;;;9.71;;
36833;SDS011;48003;52.084;5.224;2023-10-09T06:42:53;17.5;;;8.6;;
36833;SDS011;48003;52.084;5.224;2023-10-09T06:46:05;15.0;;;8.2;;
36833;SDS011;48003;52.084;5.224;2023-10-09T06:47:42;18.5;;;8.5;;
36833;SDS011;48003;52.084;5.224;2023-10-09T06:49:22;16.11;;;8.4;;
36833;SDS011;48003;52.084;5.224;2023-10-09T06:52:39;16.5;;;8.4;;
36833;SDS011;48003;52.084;5.224;2023-10-09T06:54:15;16.5;;;8.5;;
36833;SDS011;48003;52.084;5.224;2023-10-09T06:55:51;17.5;;;8.81;;
36833;SDS011;48003;52.084;5.224;2023-10-09T06:57:27;21.0;;;12.2;;
36833;SDS011;48003;52.084;5.224;2023-10-09T07:00:41;18.8;;;9.5;;
36833;SDS011;48003;52.084;5.224;2023-10-09T07:02:17;18.41;;;11.0;;
36833;SDS011;48003;52.084;5.224;2023-10-09T07:03:54;16.3;;;7.8;;
36833;SDS011;48003;52.084;5.224;2023-10-09T07:07:06;15.4;;;8.2;;
36833;SDS011;48003;52.084;5.224;2023-10-09T07:08:43;15.8;;;8.5;;
36833;SDS011;48003;52.084;5.224;2023-10-09T07:10:19;16.5;;;8.6;;
36833;SDS011;48003;52.084;5.224;2023-10-09T07:11:55;15.4;;;8.31;;
36833;SDS011;48003;52.084;5.224;2023-10-09T07:15:08;14.2;;;8.4;;
36833;SDS011;48003;52.084;5.224;2023-10-09T07:16:44;13.9;;;8.0;;
36833;SDS011;48003;52.084;5.224;2023-10-09T07:18:20;13.9;;;8.0;;
36833;SDS011;48003;52.084;5.224;2023-10-09T07:21:33;18.7;;;8.6;;
36833;SDS011;48003;52.084;5.224;2023-10-09T07:23:09;16.4;;;8.71;;
36833;SDS011;48003;52.084;5.224;2023-10-09T07:24:45;16.3;;;8.5;;
36833;SDS011;48003;52.084;5.224;2023-10-09T07:27:57;18.11;;;9.31;;
36833;SDS011;48003;52.084;5.224;2023-10-09T07:29:33;15.2;;;7.5;;
36833;SDS011;48003;52.084;5.224;2023-10-09T07:31:16;15.1;;;7.8;;
36833;SDS011;48003;52.084;5.224;2023-10-09T07:32:53;16.8;;;9.71;;
36833;SDS011;48003;52.084;5.224;2023-10-09T07:36:06;16.9;;;7.8;;
36833;SDS011;48003;52.084;5.224;2023-10-09T07:37:42;15.8;;;7.6;;
36833;SDS011;48003;52.084;5.224;2023-10-09T07:39:18;15.8;;;7.4;;
36833;SDS011;48003;52.084;5.224;2023-10-09T07:42:31;14.9;;;7.6;;
36833;SDS011;48003;52.084;5.224;2023-10-09T07:44:07;19.3;;;7.9;;
36833;SDS011;48003;52.084;5.224;2023-10-09T07:45:43;16.8;;;8.31;;
36833;SDS011;48003;52.084;5.224;2023-10-09T07:48:56;15.1;;;8.2;;
36833;SDS011;48003;52.084;5.224;2023-10-09T07:50:35;15.3;;;7.7;;
36833;SDS011;48003;52.084;5.224;2023-10-09T07:52:13;14.5;;;7.5;;
36833;SDS011;48003;52.084;5.224;2023-10-09T07:53:50;16.7;;;8.0;;
36833;SDS011;48003;52.084;5.224;2023-10-09T07:57:03;18.91;;;8.0;;
36833;SDS011;48003;52.084;5.224;2023-10-09T07:58:39;19.11;;;9.31;;
36833;SDS011;48003;52.084;5.224;2023-10-09T08:00:15;18.3;;;9.81;;
36833;SDS011;48003;52.084;5.224;2023-10-09T08:03:27;15.2;;;8.4;;
36833;SDS011;48003;52.084;5.224;2023-10-09T08:05:04;17.2;;;7.7;;
36833;SDS011;48003;52.084;5.224;2023-10-09T08:06:41;12.8;;;7.7;;
36833;SDS011;48003;52.084;5.224;2023-10-09T08:09:54;16.7;;;7.9;;
36833;SDS011;48003;52.084;5.224;2023-10-09T08:11:30;18.3;;;7.4;;
36833;SDS011;48003;52.084;5.224;2023-10-09T08:13:07;13.7;;;8.2;;
36833;SDS011;48003;52.084;5.224;2023-10-09T08:14:43;13.0;;;7.1;;
36833;SDS011;48003;52.084;5.224;2023-10-09T08:17:56;15.7;;;8.2;;
36833;SDS011;48003;52.084;5.224;2023-10-09T08:19:32;13.2;;;7.4;;
36833;SDS011;48003;52.084;5.224;2023-10-09T08:21:09;14.1;;;7.7;;
36833;SDS011;48003;52.084;5.224;2023-10-09T08:24:21;15.4;;;7.5;;
36833;SDS011;48003;52.084;5.224;2023-10-09T08:25:58;14.0;;;7.8;;
36833;SDS011;48003;52.084;5.224;2023-10-09T08:27:35;14.9;;;7.1;;
36833;SDS011;48003;52.084;5.224;2023-10-09T08:30:47;13.9;;;7.5;;
36833;SDS011;48003;52.084;5.224;2023-10-09T08:32:23;13.6;;;7.7;;
36833;SDS011;48003;52.084;5.224;2023-10-09T08:33:59;16.8;;;7.5;;
36833;SDS011;48003;52.084;5.224;2023-10-09T08:35:37;14.6;;;7.2;;
36833;SDS011;48003;52.084;5.224;2023-10-09T08:38:50;16.8;;;7.3;;
36833;SDS011;48003;52.084;5.224;2023-10-09T08:40:28;17.11;;;7.3;;
36833;SDS011;48003;52.084;5.224;2023-10-09T08:42:07;16.0;;;7.3;;
36833;SDS011;48003;52.084;5.224;2023-10-09T08:45:25;16.3;;;8.0;;
36833;SDS011;48003;52.084;5.224;2023-10-09T08:47:01;16.9;;;7.6;;
36833;SDS011;48003;52.084;5.224;2023-10-09T08:48:37;14.6;;;7.6;;
36833;SDS011;48003;52.084;5.224;2023-10-09T08:50:13;12.4;;;7.3;;
36833;SDS011;48003;52.084;5.224;2023-10-09T08:53:26;12.8;;;7.6;;
36833;SDS011;48003;52.084;5.224;2023-10-09T08:55:02;17.7;;;8.5;;
36833;SDS011;48003;52.084;5.224;2023-10-09T08:56:38;14.0;;;7.9;;
36833;SDS011;48003;52.084;5.224;2023-10-09T08:59:51;15.0;;;7.3;;
36833;SDS011;48003;52.084;5.224;2023-10-09T09:01:27;17.2;;;8.71;;
36833;SDS011;48003;52.084;5.224;2023-10-09T09:03:03;16.3;;;8.4;;
36833;SDS011;48003;52.084;5.224;2023-10-09T09:06:17;19.2;;;8.1;;
36833;SDS011;48003;52.084;5.224;2023-10-09T09:07:55;16.4;;;7.5;;
36833;SDS011;48003;52.084;5.224;2023-10-09T09:09:31;16.9;;;7.1;;
36833;SDS011;48003;52.084;5.224;2023-10-09T09:12:45;15.1;;;7.1;;
36833;SDS011;48003;52.084;5.224;2023-10-09T09:14:24;14.6;;;7.3;;
36833;SDS011;48003;52.084;5.224;2023-10-09T09:16:14;14.5;;;6.9;;
36833;SDS011;48003;52.084;5.224;2023-10-09T09:17:52;15.5;;;7.3;;
36833;SDS011;48003;52.084;5.224;2023-10-09T09:19:39;17.0;;;7.2;;
36833;SDS011;48003;52.084;5.224;2023-10-09T09:22:54;15.2;;;7.3;;
36833;SDS011;48003;52.084;5.224;2023-10-09T09:24:31;14.2;;;7.3;;
36833;SDS011;48003;52.084;5.224;2023-10-09T09:26:07;13.8;;;6.9;;
36833;SDS011;48003;52.084;5.224;2023-10-09T09:29:20;13.8;;;6.9;;
36833;SDS011;48003;52.084;5.224;2023-10-09T09:30:59;12.4;;;6.1;;
36833;SDS011;48003;52.084;5.224;2023-10-09T09:32:42;16.11;;;7.4;;
36833;SDS011;48003;52.084;5.224;2023-10-09T09:34:18;17.11;;;7.2;;
36833;SDS011;48003;52.084;5.224;2023-10-09T09:37:34;14.0;;;6.3;;
36833;SDS011;48003;52.084;5.224;2023-10-09T09:39:10;15.5;;;6.3;;
36833;SDS011;48003;52.084;5.224;2023-10-09T09:40:46;13.0;;;6.2;;
36833;SDS011;48003;52.084;5.224;2023-10-09T09:44:00;15.2;;;6.1;;
36833;SDS011;48003;52.084;5.224;2023-10-09T09:45:36;15.4;;;6.0;;
36833;SDS011;48003;52.084;5.224;2023-10-09T09:47:13;16.4;;;6.0;;
36833;SDS011;48003;52.084;5.224;2023-10-09T09:48:50;12.9;;;5.6;;
36833;SDS011;48003;52.084;5.224;2023-10-09T09:52:04;10.5;;;6.1;;
36833;SDS011;48003;52.084;5.224;2023-10-09T09:53:40;16.4;;;6.3;;
36833;SDS011;48003;52.084;5.224;2023-10-09T09:55:16;13.6;;;6.1;;
36833;SDS011;48003;52.084;5.224;2023-10-09T09:58:30;13.1;;;6.1;;
36833;SDS011;48003;52.084;5.224;2023-10-09T10:00:08;14.9;;;5.8;;
36833;SDS011;48003;52.084;5.224;2023-10-09T10:01:47;10.9;;;5.7;;
36833;SDS011;48003;52.084;5.224;2023-10-09T10:03:27;14.5;;;6.4;;
36833;SDS011;48003;52.084;5.224;2023-10-09T10:06:52;13.3;;;5.5;;
36833;SDS011;48003;52.084;5.224;2023-10-09T10:08:31;12.3;;;5.8;;
36833;SDS011;48003;52.084;5.224;2023-10-09T10:10:33;11.8;;;5.7;;
36833;SDS011;48003;52.084;5.224;2023-10-09T10:12:10;11.8;;;5.4;;
36833;SDS011;48003;52.084;5.224;2023-10-09T10:16:07;11.3;;;5.4;;
36833;SDS011;48003;52.084;5.224;2023-10-09T10:18:06;13.6;;;5.8;;
36833;SDS011;48003;52.084;5.224;2023-10-09T10:20:02;14.4;;;5.6;;
36833;SDS011;48003;52.084;5.224;2023-10-09T10:21:40;14.4;;;5.6;;
36833;SDS011;48003;52.084;5.224;2023-10-09T10:23:17;12.2;;;5.7;;
36833;SDS011;48003;52.084;5.224;2023-10-09T10:24:54;14.0;;;5.7;;
36833;SDS011;48003;52.084;5.224;2023-10-09T10:26:31;11.3;;;5.0;;
36833;SDS011;48003;52.084;5.224;2023-10-09T10:30:30;12.9;;;5.6;;
36833;SDS011;48003;52.084;5.224;2023-10-09T10:32:06;13.4;;;5.9;;
36833;SDS011;48003;52.084;5.224;2023-10-09T10:34:18;11.8;;;5.5;;
36833;SDS011;48003;52.084;5.224;2023-10-09T10:35:54;10.8;;;5.8;;
36833;SDS011;48003;52.084;5.224;2023-10-09T10:37:34;11.3;;;5.3;;
36833;SDS011;48003;52.084;5.224;2023-10-09T10:39:12;13.4;;;5.3;;
36833;SDS011;48003;52.084;5.224;2023-10-09T10:42:25;12.3;;;5.6;;
36833;SDS011;48003;52.084;5.224;2023-10-09T10:44:01;10.9;;;5.11;;
36833;SDS011;48003;52.084;5.224;2023-10-09T10:45:38;10.7;;;5.2;;
36833;SDS011;48003;52.084;5.224;2023-10-09T10:49:04;10.0;;;5.7;;
36833;SDS011;48003;52.084;5.224;2023-10-09T10:50:41;14.3;;;5.4;;
36833;SDS011;48003;52.084;5.224;2023-10-09T10:52:20;13.1;;;5.3;;
36833;SDS011;48003;52.084;5.224;2023-10-09T10:53:56;12.9;;;5.6;;
36833;SDS011;48003;52.084;5.224;2023-10-09T10:57:13;12.9;;;5.6;;
36833;SDS011;48003;52.084;5.224;2023-10-09T10:58:52;11.1;;;5.6;;
36833;SDS011;48003;52.084;5.224;2023-10-09T11:00:29;9.4;;;5.4;;
36833;SDS011;48003;52.084;5.224;2023-10-09T11:02:09;14.2;;;5.4;;
36833;SDS011;48003;52.084;5.224;2023-10-09T11:05:25;14.8;;;5.4;;
36833;SDS011;48003;52.084;5.224;2023-10-09T11:07:02;10.4;;;5.6;;
36833;SDS011;48003;52.084;5.224;2023-10-09T11:08:41;12.6;;;5.3;;
36833;SDS011;48003;52.084;5.224;2023-10-09T11:12:03;12.2;;;5.2;;
36833;SDS011;48003;52.084;5.224;2023-10-09T11:13:41;10.8;;;5.0;;
36833;SDS011;48003;52.084;5.224;2023-10-09T11:15:29;11.9;;;5.2;;
36833;SDS011;48003;52.084;5.224;2023-10-09T11:17:07;14.4;;;5.0;;
36833;SDS011;48003;52.084;5.224;2023-10-09T11:20:19;14.6;;;5.5;;
36833;SDS011;48003;52.084;5.224;2023-10-09T11:21:55;13.5;;;5.4;;
36833;SDS011;48003;52.084;5.224;2023-10-09T11:23:32;10.7;;;5.2;;
36833;SDS011;48003;52.084;5.224;2023-10-09T11:25:09;12.5;;;5.2;;
36833;SDS011;48003;52.084;5.224;2023-10-09T11:28:23;11.6;;;5.3;;
36833;SDS011;48003;52.084;5.224;2023-10-09T11:29:59;9.5;;;4.91;;
36833;SDS011;48003;52.084;5.224;2023-10-09T11:31:36;12.4;;;5.3;;
36833;SDS011;48003;52.084;5.224;2023-10-09T11:34:48;10.1;;;5.0;;
36833;SDS011;48003;52.084;5.224;2023-10-09T11:36:44;11.4;;;4.91;;
36833;SDS011;48003;52.084;5.224;2023-10-09T11:38:20;14.6;;;5.11;;
36833;SDS011;48003;52.084;5.224;2023-10-09T11:39:56;12.6;;;5.0;;
36833;SDS011;48003;52.084;5.224;2023-10-09T11:43:15;12.6;;;5.0;;
36833;SDS011;48003;52.084;5.224;2023-10-09T11:44:51;11.3;;;4.7;;
36833;SDS011;48003;52.084;5.224;2023-10-09T11:46:28;12.3;;;5.11;;
36833;SDS011;48003;52.084;5.224;2023-10-09T11:48:15;12.3;;;5.2;;
36833;SDS011;48003;52.084;5.224;2023-10-09T11:51:31;10.21;;;4.7;;
36833;SDS011;48003;52.084;5.224;2023-10-09T11:53:07;11.3;;;4.2;;
36833;SDS011;48003;52.084;5.224;2023-10-09T11:54:43;9.21;;;4.8;;
36833;SDS011;48003;52.084;5.224;2023-10-09T11:57:57;12.6;;;4.61;;
36833;SDS011;48003;52.084;5.224;2023-10-09T11:59:34;14.4;;;5.5;;
36833;SDS011;48003;52.084;5.224;2023-10-09T12:02:49;11.9;;;5.3;;
36833;SDS011;48003;52.084;5.224;2023-10-09T12:06:02;11.6;;;5.2;;
36833;SDS011;48003;52.084;5.224;2023-10-09T12:07:39;10.3;;;4.91;;
36833;SDS011;48003;52.084;5.224;2023-10-09T12:09:15;13.0;;;5.0;;
36833;SDS011;48003;52.084;5.224;2023-10-09T12:12:27;12.0;;;5.11;;
36833;SDS011;48003;52.084;5.224;2023-10-09T12:14:03;11.2;;;5.7;;
36833;SDS011;48003;52.084;5.224;2023-10-09T12:15:39;9.9;;;4.8;;
36833;SDS011;48003;52.084;5.224;2023-10-09T12:18:52;15.8;;;5.2;;
36833;SDS011;48003;52.084;5.224;2023-10-09T12:20:28;11.2;;;5.11;;
36833;SDS011;48003;52.084;5.224;2023-10-09T12:22:04;13.2;;;5.3;;
36833;SDS011;48003;52.084;5.224;2023-10-09T12:23:42;13.6;;;5.3;;
36833;SDS011;48003;52.084;5.224;2023-10-09T12:26:54;11.3;;;4.7;;
36833;SDS011;48003;52.084;5.224;2023-10-09T12:28:30;13.0;;;5.3;;
36833;SDS011;48003;52.084;5.224;2023-10-09T12:30:07;11.0;;;4.7;;
36833;SDS011;48003;52.084;5.224;2023-10-09T12:33:20;11.5;;;5.3;;
36833;SDS011;48003;52.084;5.224;2023-10-09T12:34:57;10.3;;;4.61;;
36833;SDS011;48003;52.084;5.224;2023-10-09T12:36:33;11.6;;;5.0;;
36833;SDS011;48003;52.084;5.224;2023-10-09T12:39:45;10.9;;;5.2;;
36833;SDS011;48003;52.084;5.224;2023-10-09T12:41:21;13.7;;;5.11;;
36833;SDS011;48003;52.084;5.224;2023-10-09T12:42:57;9.81;;;5.11;;
36833;SDS011;48003;52.084;5.224;2023-10-09T12:44:33;11.3;;;5.0;;
36833;SDS011;48003;52.084;5.224;2023-10-09T12:47:47;12.4;;;5.0;;